Login to view Products
 
Monday, December 06, 2021 (10:41 UTC) 10
Ras Al Khaimah International Airport
ICAO: OMRK
IATA: RKT
  • METAR OMRK 061000Z 26006KT 9999 FEW040 28/14 Q1016 A3003=
  • TAF OMRK 060500Z 0606/0712 23005KT 8000 SCT040 BECMG 0608/0610 30010KT BECMG 0615/0617 VRB02KT PROB30 0622/0705 4000 HZ BECMG 0707/0709 32010KT=

2